Time;durP1;ratioP1;P1;durP2;ratioP2;P2;SDS_P1;SDS_P2;PMS_P1;PMS_P2;Temp;Humidity;BMP_temperature;BMP_pressure;BME280_temperature;BME280_humidity;BME280_pressure;Samples;Min_cycle;Max_cycle;Signal;HPM_P1;HPM_P2
2022/01/16 00:04:09;;;;;;;24.93;11.60;;;0.20;99.90;;;;;;5041747;28;20176;-62
2022/01/16 00:06:46;;;;;;;26.93;12.13;;;0.30;99.90;;;;;;5039960;28;20255;-62
2022/01/16 00:09:13;;;;;;;29.83;11.07;;;0.20;99.90;;;;;;5039349;28;20187;-61
2022/01/16 00:11:39;;;;;;;25.00;10.67;;;0.20;99.90;;;;;;5037888;28;20165;-63
2022/01/16 00:14:06;;;;;;;29.47;11.70;;;0.20;99.90;;;;;;5034375;28;20573;-62
2022/01/16 00:16:32;;;;;;;32.40;10.77;;;0.20;99.90;;;;;;5034426;28;20208;-62
2022/01/16 00:18:58;;;;;;;20.30;10.33;;;0.20;99.90;;;;;;5034681;28;20160;-62
2022/01/16 00:21:27;;;;;;;30.57;12.17;;;0.20;99.90;;;;;;5034537;28;20462;-62
2022/01/16 00:23:54;;;;;;;32.30;12.03;;;0.20;99.90;;;;;;5034556;28;20165;-62
2022/01/16 00:26:21;;;;;;;16.70;9.37;;;0.20;99.90;;;;;;5034887;28;20161;-62
2022/01/16 00:28:49;;;;;;;25.83;9.70;;;0.20;99.90;;;;;;5033835;28;20184;-61
2022/01/16 00:31:16;;;;;;;22.67;10.10;;;0.30;99.90;;;;;;5034227;28;20232;-63
2022/01/16 00:33:44;;;;;;;21.10;9.93;;;0.30;99.90;;;;;;5033262;28;20541;-62
2022/01/16 00:36:11;;;;;;;22.87;10.43;;;0.30;99.90;;;;;;5034110;28;20581;-61
2022/01/16 00:38:42;;;;;;;21.10;10.67;;;0.20;99.90;;;;;;5034118;28;20260;-62
2022/01/16 00:41:08;;;;;;;25.90;10.87;;;0.10;99.90;;;;;;5029500;28;20208;-62
2022/01/16 00:43:34;;;;;;;21.53;9.97;;;0.10;99.90;;;;;;5033901;28;20577;-63
2022/01/16 00:46:00;;;;;;;19.23;9.73;;;0.00;99.90;;;;;;5034004;28;20169;-62
2022/01/16 00:48:25;;;;;;;23.17;10.73;;;0.00;99.90;;;;;;5033998;28;20173;-62
2022/01/16 00:50:51;;;;;;;23.43;10.50;;;0.10;99.90;;;;;;5033844;28;20193;-62
2022/01/16 00:53:17;;;;;;;21.83;9.97;;;0.10;99.90;;;;;;5033718;28;20169;-63
2022/01/16 00:55:43;;;;;;;21.93;10.00;;;0.00;99.90;;;;;;5033382;28;20196;-62
2022/01/16 00:58:08;;;;;;;20.43;10.47;;;0.00;99.90;;;;;;5033865;28;20172;-62
2022/01/16 01:00:34;;;;;;;20.33;10.07;;;0.10;99.90;;;;;;5033468;28;20176;-63
2022/01/16 01:03:00;;;;;;;18.00;9.60;;;0.00;99.90;;;;;;5033732;28;20184;-63
2022/01/16 01:05:26;;;;;;;23.10;9.83;;;0.00;99.90;;;;;;5033748;28;20211;-62
2022/01/16 01:07:53;;;;;;;22.40;10.13;;;-0.10;99.90;;;;;;5032382;28;20181;-63
2022/01/16 01:10:19;;;;;;;34.90;10.27;;;-0.20;99.90;;;;;;5033597;28;20192;-62
2022/01/16 01:12:56;;;;;;;24.67;10.23;;;-0.20;99.90;;;;;;5032590;28;20272;-62
2022/01/16 01:15:29;;;;;;;21.87;10.83;;;-0.10;99.90;;;;;;5033719;28;20167;-61
2022/01/16 01:17:55;;;;;;;23.30;9.87;;;-0.20;99.90;;;;;;5033273;28;20149;-62
2022/01/16 01:20:23;;;;;;;26.37;10.27;;;-0.20;99.90;;;;;;5033545;28;20593;-63
2022/01/16 01:22:51;;;;;;;20.77;10.40;;;-0.20;99.90;;;;;;5033585;28;20243;-62
2022/01/16 01:25:17;;;;;;;20.93;10.37;;;-0.30;99.90;;;;;;5033720;28;20178;-61
2022/01/16 01:27:45;;;;;;;21.50;10.23;;;-0.20;99.90;;;;;;5033757;28;20212;-63
2022/01/16 01:30:14;;;;;;;26.90;9.67;;;-0.20;99.90;;;;;;5033128;28;20201;-62
2022/01/16 01:32:43;;;;;;;21.63;10.13;;;-0.20;99.90;;;;;;5033386;28;20506;-62
2022/01/16 01:35:12;;;;;;;20.27;10.50;;;-0.30;99.90;;;;;;5033673;28;20176;-62
2022/01/16 01:37:38;;;;;;;18.73;9.67;;;-0.30;99.90;;;;;;5033300;28;20221;-62
2022/01/16 01:40:07;;;;;;;27.80;11.27;;;-0.20;99.90;;;;;;5033363;28;20171;-62
2022/01/16 01:42:42;;;;;;;17.67;9.73;;;-0.20;99.90;;;;;;5033561;28;20253;-62
2022/01/16 01:53:21;;;;;;;20.20;9.23;;;-0.20;99.90;;;;;;5037892;28;20203;-62
2022/01/16 01:55:47;;;;;;;20.43;9.47;;;-0.20;99.90;;;;;;5039501;28;20157;-63
2022/01/16 01:58:14;;;;;;;21.97;10.17;;;-0.30;99.90;;;;;;5037434;28;20165;-63
2022/01/16 02:00:41;;;;;;;22.10;10.97;;;-0.30;99.90;;;;;;5036778;28;20632;-63
2022/01/16 02:03:23;;;;;;;23.87;10.73;;;-0.20;99.90;;;;;;5037563;28;20248;-63
2022/01/16 02:05:49;;;;;;;25.50;11.17;;;-0.20;99.90;;;;;;5036860;28;20504;-63
2022/01/16 02:08:15;;;;;;;28.73;11.23;;;-0.20;99.90;;;;;;5037489;28;20172;-63
2022/01/16 02:10:42;;;;;;;23.27;10.10;;;-0.30;99.90;;;;;;5037202;28;20199;-62
2022/01/16 02:13:11;;;;;;;19.87;9.27;;;-0.40;99.90;;;;;;5028374;28;20182;-63
2022/01/16 02:31:59;;;;;;;21.47;9.90;;;-0.40;99.90;;;;;;5021450;28;20177;-63
2022/01/16 02:34:34;;;;;;;22.00;9.50;;;-0.30;99.90;;;;;;5020172;28;20222;-63
2022/01/16 02:37:04;;;;;;;24.20;9.50;;;-0.30;99.90;;;;;;5017145;28;20585;-62
2022/01/16 02:39:34;;;;;;;18.37;10.20;;;-0.30;99.90;;;;;;5025254;28;20165;-62
2022/01/16 02:41:59;;;;;;;21.93;10.00;;;-0.30;99.90;;;;;;5024667;28;20194;-63
2022/01/16 02:46:58;;;;;;;20.30;9.13;;;-0.20;99.90;;;;;;5028577;28;20570;-65
2022/01/16 02:49:31;;;;;;;20.87;9.37;;;-0.20;99.90;;;;;;5021671;28;20226;-63
2022/01/16 02:52:01;;;;;;;19.13;9.57;;;-0.30;99.90;;;;;;5021848;28;20245;-62
2022/01/16 02:54:29;;;;;;;18.93;9.33;;;-0.30;99.90;;;;;;5049380;28;20171;-62
2022/01/16 02:56:55;;;;;;;20.20;9.20;;;-0.30;99.90;;;;;;5046833;28;20227;-64
2022/01/16 02:59:22;;;;;;;19.60;9.00;;;-0.30;99.90;;;;;;5036506;28;20546;-62
2022/01/16 03:01:49;;;;;;;21.67;9.77;;;-0.30;99.90;;;;;;5036022;28;20612;-63
2022/01/16 03:04:16;;;;;;;21.10;8.97;;;-0.30;99.90;;;;;;5035998;28;20172;-62
2022/01/16 03:06:42;;;;;;;19.47;8.87;;;-0.30;99.90;;;;;;5036583;28;20258;-62
2022/01/16 03:09:08;;;;;;;17.57;9.60;;;-0.30;99.90;;;;;;5036188;28;20253;-63
2022/01/16 03:11:37;;;;;;;23.97;9.40;;;-0.30;99.90;;;;;;5031673;28;20512;-63
2022/01/16 03:14:04;;;;;;;22.37;9.50;;;-0.40;99.90;;;;;;5036346;28;20165;-62
2022/01/16 03:16:30;;;;;;;14.77;8.60;;;-0.40;99.90;;;;;;5032244;28;20173;-62
2022/01/16 03:21:57;;;;;;;17.73;9.53;;;-0.40;99.90;;;;;;5042090;28;20168;-63
2022/01/16 03:24:30;;;;;;;23.00;9.10;;;-0.40;99.90;;;;;;5035525;28;20585;-63
2022/01/16 03:26:58;;;;;;;21.70;9.30;;;-0.40;99.90;;;;;;5035350;28;20191;-62
2022/01/16 03:29:26;;;;;;;23.50;9.97;;;-0.50;99.90;;;;;;5035452;28;20180;-63
2022/01/16 03:31:51;;;;;;;22.77;9.53;;;-0.50;99.90;;;;;;5034301;28;20192;-64
2022/01/16 03:34:18;;;;;;;19.57;9.43;;;-0.30;99.90;;;;;;5035262;28;20161;-63
2022/01/16 03:36:44;;;;;;;18.17;9.57;;;-0.30;99.90;;;;;;5035715;28;20232;-64
2022/01/16 03:39:10;;;;;;;20.97;9.37;;;-0.40;99.90;;;;;;5029427;28;20209;-63
2022/01/16 03:41:37;;;;;;;21.17;9.63;;;-0.30;99.90;;;;;;5028076;28;20636;-65
2022/01/16 03:44:06;;;;;;;18.57;8.77;;;-0.30;99.90;;;;;;5035196;28;20159;-62
2022/01/16 03:46:37;;;;;;;21.87;8.80;;;-0.20;99.90;;;;;;5034949;28;20271;-63
2022/01/16 03:49:14;;;;;;;19.27;8.83;;;-0.30;99.90;;;;;;5030074;28;20208;-62
2022/01/16 03:51:43;;;;;;;21.27;8.87;;;-0.30;99.90;;;;;;5031197;28;20191;-63
2022/01/16 03:54:12;;;;;;;17.70;8.73;;;-0.40;99.90;;;;;;5029723;28;20207;-64
2022/01/16 03:56:38;;;;;;;17.20;8.20;;;-0.50;99.90;;;;;;5034593;28;20656;-64
2022/01/16 03:59:04;;;;;;;18.67;8.83;;;-0.60;99.90;;;;;;5020512;28;20266;-64
2022/01/16 04:01:30;;;;;;;16.87;8.50;;;-0.70;99.90;;;;;;5014858;28;20179;-62
2022/01/16 04:03:56;;;;;;;20.70;9.77;;;-0.70;99.90;;;;;;5010687;28;20200;-63
2022/01/16 04:06:40;;;;;;;19.37;9.27;;;-0.70;99.90;;;;;;5015288;28;20198;-62
2022/01/16 04:09:05;;;;;;;18.20;10.13;;;-0.70;99.90;;;;;;5015403;28;20238;-63
2022/01/16 04:11:32;;;;;;;18.97;9.80;;;-0.60;99.90;;;;;;5015007;28;20189;-62
2022/01/16 04:14:08;;;;;;;21.77;9.17;;;-0.60;99.90;;;;;;5014284;28;20172;-64
2022/01/16 04:16:34;;;;;;;29.13;9.73;;;-0.60;99.90;;;;;;5014791;28;20256;-63
2022/01/16 04:18:59;;;;;;;19.70;9.77;;;-0.70;99.90;;;;;;5028311;28;20601;-62
2022/01/16 04:21:27;;;;;;;21.10;9.80;;;-0.70;99.90;;;;;;5034365;28;20240;-62
2022/01/16 04:23:54;;;;;;;17.83;9.60;;;-0.70;99.90;;;;;;5033104;28;20552;-62
2022/01/16 04:26:21;;;;;;;20.20;9.87;;;-0.70;99.90;;;;;;5034279;28;20187;-62
2022/01/16 04:28:47;;;;;;;19.87;9.30;;;-0.70;99.90;;;;;;5034478;28;20185;-63
2022/01/16 04:31:14;;;;;;;22.00;10.20;;;-0.70;99.90;;;;;;5034739;28;20287;-62
2022/01/16 04:33:40;;;;;;;21.93;9.90;;;-0.60;99.90;;;;;;5034214;28;20191;-62
2022/01/16 04:36:13;;;;;;;20.37;9.50;;;-0.50;99.90;;;;;;5070932;28;20572;-63
2022/01/16 04:38:44;;;;;;;24.20;9.23;;;-0.60;99.90;;;;;;5065642;28;20213;-64
2022/01/16 04:43:56;;;;;;;21.77;8.37;;;-0.40;99.90;;;;;;5050695;28;20686;-62
2022/01/16 04:46:27;;;;;;;25.43;9.33;;;-0.50;99.90;;;;;;5058471;28;20165;-64
2022/01/16 04:48:55;;;;;;;20.70;8.87;;;-0.40;99.90;;;;;;5055082;28;20164;-63
2022/01/16 04:51:22;;;;;;;18.13;9.00;;;-0.40;99.90;;;;;;5051667;28;20179;-63
2022/01/16 04:53:47;;;;;;;19.50;9.13;;;-0.40;99.90;;;;;;5050373;28;20171;-63
2022/01/16 04:56:13;;;;;;;18.60;9.03;;;-0.40;99.90;;;;;;5050755;28;20271;-63
2022/01/16 04:58:40;;;;;;;26.67;8.77;;;-0.30;99.90;;;;;;5051006;28;20246;-63
2022/01/16 05:01:07;;;;;;;21.80;8.97;;;-0.40;99.90;;;;;;5050474;28;20251;-65
2022/01/16 05:03:34;;;;;;;18.60;8.70;;;-0.40;99.90;;;;;;5055198;28;20189;-63
2022/01/16 05:06:01;;;;;;;20.83;9.83;;;-0.60;99.90;;;;;;5070401;28;20174;-63
2022/01/16 05:08:28;;;;;;;14.17;8.23;;;-0.70;99.90;;;;;;5054131;28;20184;-63
2022/01/16 05:10:56;;;;;;;21.43;9.50;;;-0.60;99.90;;;;;;5048622;28;20177;-64
2022/01/16 05:16:34;;;;;;;18.00;8.67;;;-0.60;99.90;;;;;;5050881;28;20162;-64
2022/01/16 05:16:36;;;;;;;20.47;8.87;;;-0.80;99.90;;;;;;5049247;28;20177;-65
2022/01/16 05:19:11;;;;;;;17.50;8.63;;;-0.70;99.90;;;;;;5057179;28;20155;-64
2022/01/16 05:21:38;;;;;;;20.43;9.07;;;-0.70;99.90;;;;;;5057017;28;20174;-65
2022/01/16 05:24:08;;;;;;;20.30;8.23;;;-0.80;99.90;;;;;;5058680;28;20253;-68
2022/01/16 05:26:35;;;;;;;21.67;8.80;;;-0.80;99.90;;;;;;5061370;28;20169;-63
2022/01/16 05:29:01;;;;;;;21.30;8.73;;;-0.80;99.90;;;;;;5051169;28;20157;-66
2022/01/16 05:31:27;;;;;;;20.80;8.90;;;-0.90;99.90;;;;;;5049718;28;20199;-64
2022/01/16 05:33:52;;;;;;;20.00;9.97;;;-1.00;99.90;;;;;;5049493;28;20495;-63
2022/01/16 05:36:22;;;;;;;23.50;9.83;;;-0.90;99.90;;;;;;5057458;28;20187;-63
2022/01/16 05:38:49;;;;;;;21.33;10.07;;;-1.00;99.90;;;;;;5060484;28;20183;-64
2022/01/16 05:41:14;;;;;;;22.80;10.17;;;-1.00;99.90;;;;;;5052661;28;20161;-63
2022/01/16 05:43:40;;;;;;;21.33;9.77;;;-0.90;99.90;;;;;;5050198;28;20171;-63
2022/01/16 05:46:06;;;;;;;28.50;9.20;;;-0.90;99.90;;;;;;5043929;28;20194;-63
2022/01/16 05:48:32;;;;;;;25.43;9.40;;;-0.90;99.90;;;;;;5055527;28;20591;-63
2022/01/16 05:50:57;;;;;;;18.80;8.93;;;-0.90;99.90;;;;;;5048461;28;20187;-66
2022/01/16 05:53:23;;;;;;;21.27;9.50;;;-0.90;99.90;;;;;;5037328;28;20190;-64
2022/01/16 05:55:49;;;;;;;23.90;9.67;;;-0.90;99.90;;;;;;5040798;28;20213;-63
2022/01/16 05:58:15;;;;;;;23.40;9.33;;;-0.80;99.90;;;;;;5038677;28;20206;-65
2022/01/16 06:00:41;;;;;;;17.73;9.37;;;-0.90;99.90;;;;;;5038513;28;20221;-64
2022/01/16 06:03:09;;;;;;;15.73;8.83;;;-0.80;99.90;;;;;;5039285;28;20526;-64
2022/01/16 06:05:34;;;;;;;20.27;9.43;;;-0.90;99.90;;;;;;5039835;28;20835;-64
2022/01/16 06:08:06;;;;;;;27.23;9.63;;;-0.80;99.90;;;;;;5039518;28;20182;-63
2022/01/16 06:10:32;;;;;;;18.83;10.33;;;-0.80;99.90;;;;;;5034934;28;20654;-63
2022/01/16 06:12:58;;;;;;;24.80;9.33;;;-0.90;99.90;;;;;;5047617;28;20208;-65
2022/01/16 06:15:23;;;;;;;19.70;9.60;;;-0.90;99.90;;;;;;5037034;28;20303;-64
2022/01/16 06:17:50;;;;;;;20.83;10.40;;;-1.00;99.90;;;;;;5036517;28;20186;-63
2022/01/16 06:20:16;;;;;;;23.33;10.20;;;-0.90;99.90;;;;;;5040227;28;20187;-63
2022/01/16 06:22:43;;;;;;;19.30;9.03;;;-1.00;99.90;;;;;;5042500;28;20264;-64
2022/01/16 06:25:09;;;;;;;21.20;10.77;;;-0.90;99.90;;;;;;5041692;28;20217;-62
2022/01/16 06:27:35;;;;;;;22.17;10.13;;;-0.90;99.90;;;;;;5039842;28;20181;-63
2022/01/16 06:30:02;;;;;;;21.87;9.20;;;-1.00;99.90;;;;;;5038439;28;20185;-63
2022/01/16 06:32:28;;;;;;;24.03;9.70;;;-1.00;99.90;;;;;;5034759;28;20208;-67
2022/01/16 06:34:53;;;;;;;23.47;11.83;;;-0.90;99.90;;;;;;5039576;28;20320;-63
2022/01/16 06:37:19;;;;;;;18.90;10.87;;;-0.80;99.90;;;;;;5039635;28;20189;-63
2022/01/16 06:39:44;;;;;;;27.03;13.00;;;-0.90;99.90;;;;;;5039452;28;20210;-64
2022/01/16 06:42:10;;;;;;;23.80;11.83;;;-0.90;99.90;;;;;;5033378;28;20604;-63
2022/01/16 06:44:36;;;;;;;30.90;13.20;;;-0.80;99.90;;;;;;5039394;28;20578;-63
2022/01/16 06:47:02;;;;;;;23.33;11.20;;;-0.70;99.90;;;;;;5035147;28;20612;-63
2022/01/16 06:49:27;;;;;;;27.00;11.20;;;-0.70;99.90;;;;;;5038090;28;20654;-63
2022/01/16 06:51:53;;;;;;;29.47;11.17;;;-0.70;99.90;;;;;;5038423;28;20546;-64
2022/01/16 06:54:18;;;;;;;21.10;10.67;;;-0.70;99.90;;;;;;5037607;28;20221;-64
2022/01/16 06:56:44;;;;;;;21.30;10.33;;;-0.70;99.90;;;;;;5065314;28;20224;-63
2022/01/16 06:59:10;;;;;;;21.30;10.60;;;-0.70;99.90;;;;;;5033361;28;20214;-63
2022/01/16 07:01:35;;;;;;;22.57;10.07;;;-0.70;99.90;;;;;;5038749;28;20324;-69
2022/01/16 07:04:01;;;;;;;21.13;10.87;;;-0.70;99.90;;;;;;5037936;28;20618;-62
2022/01/16 07:06:26;;;;;;;24.50;10.90;;;-0.60;99.90;;;;;;5039872;28;20185;-64
2022/01/16 07:08:52;;;;;;;19.17;10.23;;;-0.60;99.90;;;;;;5039327;28;20610;-65
2022/01/16 07:11:18;;;;;;;26.80;11.27;;;-0.60;99.90;;;;;;5033556;28;20180;-63
2022/01/16 07:13:44;;;;;;;22.37;10.80;;;-0.60;99.90;;;;;;5039567;28;20287;-63
2022/01/16 07:16:10;;;;;;;26.67;11.73;;;-0.50;99.90;;;;;;5044882;28;20218;-63
2022/01/16 07:18:36;;;;;;;24.17;11.30;;;-0.50;99.90;;;;;;5035673;28;20519;-63
2022/01/16 07:21:02;;;;;;;23.37;10.57;;;-0.40;99.90;;;;;;5035520;28;20196;-64
2022/01/16 07:23:27;;;;;;;24.93;11.60;;;-0.40;99.90;;;;;;5033968;28;20184;-65
2022/01/16 07:25:54;;;;;;;22.60;11.27;;;-0.60;99.90;;;;;;5037537;28;20628;-64
2022/01/16 07:28:20;;;;;;;25.03;10.87;;;-0.80;99.90;;;;;;5030966;28;20636;-64
2022/01/16 07:30:47;;;;;;;29.60;12.03;;;-0.80;99.90;;;;;;5029217;28;20187;-64
2022/01/16 07:33:13;;;;;;;20.17;10.83;;;-0.70;99.90;;;;;;5040646;28;20261;-65
2022/01/16 07:35:39;;;;;;;24.37;10.90;;;-0.70;99.90;;;;;;5035660;28;20290;-65
2022/01/16 07:38:07;;;;;;;24.97;12.27;;;-0.60;99.90;;;;;;5043155;28;20188;-69
2022/01/16 07:40:34;;;;;;;23.87;11.03;;;-0.70;99.90;;;;;;5041672;28;20200;-63
2022/01/16 07:43:00;;;;;;;24.83;11.97;;;-0.50;99.90;;;;;;5037634;28;20210;-64
2022/01/16 07:45:26;;;;;;;32.13;15.17;;;-0.60;99.90;;;;;;5035154;28;20238;-65
2022/01/16 07:47:51;;;;;;;28.50;15.90;;;-0.50;99.90;;;;;;5036989;28;20528;-65
2022/01/16 07:50:17;;;;;;;27.43;15.03;;;-0.50;99.90;;;;;;5035752;28;20199;-68
2022/01/16 07:52:44;;;;;;;20.47;12.20;;;-0.50;99.90;;;;;;5032232;28;20221;-63
2022/01/16 07:55:10;;;;;;;22.23;10.53;;;-0.50;99.90;;;;;;5033006;28;20228;-63
2022/01/16 07:57:37;;;;;;;25.47;12.40;;;-0.60;99.90;;;;;;5033661;28;20280;-69
2022/01/16 08:00:04;;;;;;;21.23;11.60;;;-0.60;99.90;;;;;;5037640;28;20601;-63
2022/01/16 08:02:30;;;;;;;24.23;11.03;;;-0.40;99.90;;;;;;5034574;28;20307;-63
2022/01/16 08:04:56;;;;;;;23.13;11.83;;;-0.30;99.90;;;;;;5031059;28;20340;-64
2022/01/16 08:10:06;;;;;;;24.33;11.37;;;-0.30;99.90;;;;;;5035407;28;20268;-70
2022/01/16 08:12:32;;;;;;;25.53;10.17;;;-0.20;99.90;;;;;;5038850;28;20227;-64
2022/01/16 08:14:58;;;;;;;19.83;10.97;;;-0.20;99.90;;;;;;5041168;28;20289;-64
2022/01/16 08:17:23;;;;;;;25.63;11.63;;;0.00;99.90;;;;;;5039094;28;20188;-66
2022/01/16 08:19:49;;;;;;;30.20;12.43;;;0.10;99.90;;;;;;5038953;28;20517;-63
2022/01/16 08:22:14;;;;;;;32.60;13.50;;;0.10;99.90;;;;;;5070679;28;20282;-64
2022/01/16 08:24:40;;;;;;;24.67;12.63;;;0.30;99.90;;;;;;5044046;28;20211;-65
2022/01/16 08:27:06;;;;;;;28.67;14.03;;;0.30;99.90;;;;;;5044474;28;20184;-64
2022/01/16 08:29:31;;;;;;;24.00;14.10;;;0.40;99.90;;;;;;5041016;28;23709;-64
2022/01/16 08:31:57;;;;;;;24.87;12.97;;;0.40;99.90;;;;;;5038319;28;20687;-65
2022/01/16 08:34:23;;;;;;;27.17;13.77;;;0.40;99.90;;;;;;5039403;28;20232;-64
2022/01/16 08:36:48;;;;;;;28.10;14.30;;;0.50;99.90;;;;;;5041566;28;20635;-63
2022/01/16 08:39:14;;;;;;;24.80;11.27;;;0.70;99.90;;;;;;5039619;28;20192;-64
2022/01/16 08:41:40;;;;;;;29.33;13.77;;;0.70;99.90;;;;;;5036670;28;20177;-65
2022/01/16 08:44:07;;;;;;;26.97;14.43;;;0.70;99.90;;;;;;5035746;28;20191;-65
2022/01/16 08:46:33;;;;;;;24.20;12.17;;;0.80;99.90;;;;;;5040624;28;20199;-63
2022/01/16 08:49:01;;;;;;;23.47;11.53;;;0.70;99.90;;;;;;5040330;28;20185;-64
2022/01/16 08:51:27;;;;;;;23.53;11.60;;;0.80;99.90;;;;;;5040164;28;20197;-65
2022/01/16 08:53:53;;;;;;;21.80;11.03;;;0.80;99.90;;;;;;5035869;28;20636;-63
2022/01/16 08:56:20;;;;;;;21.50;11.10;;;0.90;99.90;;;;;;5070988;28;20197;-63
2022/01/16 08:58:46;;;;;;;25.70;11.53;;;0.90;99.90;;;;;;5040833;28;20212;-63
2022/01/16 09:01:12;;;;;;;20.70;10.83;;;1.00;99.90;;;;;;5040171;28;20224;-63
2022/01/16 09:03:38;;;;;;;24.93;11.70;;;1.00;99.90;;;;;;5041985;28;20265;-63
2022/01/16 09:06:04;;;;;;;24.40;11.73;;;1.00;99.90;;;;;;5045238;28;20173;-63
2022/01/16 09:08:30;;;;;;;24.27;11.60;;;1.10;99.90;;;;;;5041851;28;20184;-64
2022/01/16 09:10:55;;;;;;;25.20;12.40;;;1.20;99.90;;;;;;5066403;28;20192;-65
2022/01/16 09:13:21;;;;;;;23.70;13.03;;;1.30;99.90;;;;;;5038780;28;20176;-66
2022/01/16 09:15:50;;;;;;;26.23;12.67;;;1.30;99.90;;;;;;5037406;28;20645;-64
2022/01/16 09:18:17;;;;;;;24.73;12.07;;;1.30;99.90;;;;;;5033927;28;20308;-63
2022/01/16 09:20:44;;;;;;;26.93;13.27;;;1.30;99.90;;;;;;5037904;28;20639;-65
2022/01/16 09:23:11;;;;;;;28.90;14.17;;;1.30;99.90;;;;;;5040258;28;20259;-66
2022/01/16 09:25:36;;;;;;;27.10;15.10;;;1.40;99.90;;;;;;5045117;28;20186;-66
2022/01/16 09:28:03;;;;;;;25.60;14.30;;;1.60;99.90;;;;;;5042314;28;20177;-65
2022/01/16 09:30:30;;;;;;;28.23;14.57;;;1.60;99.90;;;;;;5043662;28;20185;-64
2022/01/16 09:32:56;;;;;;;24.23;13.20;;;1.70;99.90;;;;;;5042906;28;20350;-63
2022/01/16 09:35:22;;;;;;;26.77;14.13;;;1.80;99.90;;;;;;5042634;28;20322;-65
2022/01/16 09:37:49;;;;;;;27.13;13.30;;;1.90;99.90;;;;;;5038923;28;20176;-63
2022/01/16 09:40:17;;;;;;;24.40;14.30;;;1.80;99.90;;;;;;5039069;28;20195;-64
2022/01/16 09:42:43;;;;;;;30.67;14.90;;;1.90;99.90;;;;;;5038005;28;20200;-63
2022/01/16 09:45:12;;;;;;;22.90;13.67;;;2.00;99.90;;;;;;5037434;28;20179;-63
2022/01/16 09:47:38;;;;;;;24.57;14.17;;;2.20;99.90;;;;;;5034189;28;20189;-63
2022/01/16 09:50:06;;;;;;;26.93;13.70;;;2.30;99.90;;;;;;5035864;28;20714;-62
2022/01/16 09:52:41;;;;;;;28.67;14.00;;;2.50;99.90;;;;;;5036234;28;20557;-62
2022/01/16 09:55:07;;;;;;;24.73;14.47;;;2.50;99.90;;;;;;5039227;28;20219;-64
2022/01/16 09:57:33;;;;;;;30.33;14.23;;;2.60;99.90;;;;;;5035223;28;20319;-62
2022/01/16 09:59:59;;;;;;;26.57;15.83;;;2.50;99.90;;;;;;5040323;28;20695;-63
2022/01/16 10:02:25;;;;;;;29.03;15.07;;;2.60;99.90;;;;;;5034436;28;20208;-63
2022/01/16 10:04:53;;;;;;;32.57;13.63;;;2.50;99.90;;;;;;5040511;28;20534;-62
2022/01/16 10:07:19;;;;;;;28.03;15.10;;;2.50;99.90;;;;;;5040116;28;20216;-65
2022/01/16 10:10:12;;;;;;;24.80;13.83;;;2.60;99.90;;;;;;5037167;28;20192;-64
2022/01/16 10:12:46;;;;;;;33.13;17.00;;;2.70;99.90;;;;;;5034423;28;20291;-66
2022/01/16 10:15:31;;;;;;;25.87;14.17;;;2.70;99.90;;;;;;5039694;28;20329;-64
2022/01/16 10:17:59;;;;;;;29.70;13.93;;;2.80;99.90;;;;;;5037904;28;20185;-62
2022/01/16 10:20:27;;;;;;;25.17;15.10;;;2.90;99.90;;;;;;5040068;28;20192;-62
2022/01/16 10:22:56;;;;;;;29.27;14.77;;;2.90;99.90;;;;;;5038468;28;20219;-64
2022/01/16 10:25:44;;;;;;;27.53;13.83;;;3.00;99.90;;;;;;5038734;28;20215;-67
2022/01/16 10:28:23;;;;;;;28.87;14.43;;;3.20;99.90;;;;;;5033639;28;20696;-62
2022/01/16 10:30:54;;;;;;;24.87;10.50;;;3.30;99.90;;;;;;5041769;28;20537;-65
2022/01/16 10:33:24;;;;;;;25.40;12.23;;;3.40;99.90;;;;;;5042814;28;20515;-66
2022/01/16 10:35:52;;;;;;;23.07;11.67;;;3.40;99.90;;;;;;5040914;28;20292;-63
2022/01/16 10:38:28;;;;;;;20.43;10.17;;;3.40;99.90;;;;;;5043366;28;20284;-63
2022/01/16 10:40:55;;;;;;;21.60;11.10;;;3.30;99.90;;;;;;5040974;28;20184;-64
2022/01/16 10:43:42;;;;;;;22.57;11.80;;;3.50;99.90;;;;;;5047729;28;20211;-69
2022/01/16 10:46:10;;;;;;;21.87;11.33;;;3.70;99.90;;;;;;5042358;28;20196;-64
2022/01/16 10:48:37;;;;;;;23.93;10.97;;;3.90;99.90;;;;;;5047243;28;20185;-65
2022/01/16 10:51:03;;;;;;;16.23;9.93;;;3.90;99.90;;;;;;5047253;28;20210;-64
2022/01/16 10:53:31;;;;;;;18.93;10.47;;;4.10;99.90;;;;;;5036980;28;20188;-64
2022/01/16 10:55:58;;;;;;;20.10;10.80;;;4.20;99.90;;;;;;5039030;28;20293;-62
2022/01/16 10:58:40;;;;;;;16.60;9.37;;;4.30;99.90;;;;;;5036571;28;20529;-63
2022/01/16 11:01:14;;;;;;;16.77;8.37;;;4.40;99.90;;;;;;5038730;28;20187;-62
2022/01/16 11:03:46;;;;;;;18.67;8.67;;;4.40;99.90;;;;;;5044292;28;20229;-62
2022/01/16 11:06:23;;;;;;;12.90;7.37;;;4.50;99.90;;;;;;5036492;28;20650;-64
2022/01/16 11:08:53;;;;;;;9.10;5.90;;;4.60;99.90;;;;;;5040755;28;20213;-63
2022/01/16 11:11:22;;;;;;;10.00;5.00;;;4.60;99.90;;;;;;5039818;28;20243;-63
2022/01/16 11:13:50;;;;;;;6.13;3.57;;;4.60;99.90;;;;;;5038652;28;20216;-63
2022/01/16 11:16:16;;;;;;;8.40;4.50;;;4.70;99.90;;;;;;5041374;28;20226;-64
2022/01/16 11:18:48;;;;;;;6.97;3.70;;;4.50;99.90;;;;;;5040781;28;20276;-65
2022/01/16 11:21:19;;;;;;;9.37;4.93;;;4.60;99.90;;;;;;5035893;28;20257;-66
2022/01/16 11:26:17;;;;;;;6.70;4.20;;;4.70;99.90;;;;;;5034014;28;20194;-62
2022/01/16 11:28:43;;;;;;;6.93;4.30;;;4.70;99.90;;;;;;5034938;28;20636;-64
2022/01/16 11:31:11;;;;;;;7.10;4.17;;;4.70;99.90;;;;;;5033735;28;20238;-63
2022/01/16 11:33:38;;;;;;;8.03;4.13;;;4.70;99.90;;;;;;5034853;28;20180;-63
2022/01/16 11:36:06;;;;;;;8.77;4.20;;;4.60;99.90;;;;;;5031454;28;20239;-62
2022/01/16 11:38:35;;;;;;;14.97;5.63;;;4.60;99.90;;;;;;5032977;28;20955;-63
2022/01/16 11:41:33;;;;;;;7.03;3.90;;;4.60;99.90;;;;;;5035947;28;20266;-62
2022/01/16 11:44:03;;;;;;;10.07;5.67;;;4.50;99.90;;;;;;5032225;28;20189;-63
2022/01/16 11:46:31;;;;;;;9.67;5.00;;;4.40;99.90;;;;;;5043689;28;20675;-63
2022/01/16 11:49:03;;;;;;;8.57;5.10;;;4.40;99.90;;;;;;5039592;28;20609;-64
2022/01/16 11:51:39;;;;;;;10.80;5.10;;;4.40;99.90;;;;;;5036895;28;20537;-62
2022/01/16 11:54:15;;;;;;;8.77;5.10;;;4.40;99.90;;;;;;5039192;28;20173;-62
2022/01/16 11:56:41;;;;;;;9.47;5.37;;;4.40;99.90;;;;;;5037651;28;20186;-63
2022/01/16 11:59:35;;;;;;;9.07;5.40;;;4.40;99.90;;;;;;5041791;28;20270;-64
2022/01/16 12:02:05;;;;;;;9.40;5.27;;;4.20;99.90;;;;;;5044990;28;20206;-62
2022/01/16 12:04:31;;;;;;;9.53;5.03;;;4.20;99.90;;;;;;5037565;28;20645;-63
2022/01/16 12:07:20;;;;;;;6.93;4.53;;;4.10;99.90;;;;;;5038640;28;20190;-63
2022/01/16 12:09:57;;;;;;;8.80;5.67;;;4.10;99.90;;;;;;5037820;28;20227;-62
2022/01/16 12:12:26;;;;;;;9.63;4.83;;;4.00;99.90;;;;;;5038043;28;20169;-64
2022/01/16 12:15:13;;;;;;;7.37;4.70;;;4.00;99.90;;;;;;5037040;28;20246;-63
2022/01/16 12:17:44;;;;;;;7.30;4.50;;;3.90;99.90;;;;;;5033579;28;20622;-64
2022/01/16 12:20:16;;;;;;;9.87;5.03;;;3.90;99.90;;;;;;5035342;28;20188;-61
2022/01/16 12:22:55;;;;;;;9.77;3.83;;;3.80;99.90;;;;;;5034892;28;20199;-62
2022/01/16 12:25:30;;;;;;;8.70;5.03;;;3.80;99.90;;;;;;5033392;28;20209;-67
2022/01/16 12:28:13;;;;;;;8.27;5.23;;;3.80;99.90;;;;;;5037217;28;20272;-62
2022/01/16 12:30:59;;;;;;;7.43;4.73;;;3.80;99.90;;;;;;5038591;28;20178;-63
2022/01/16 12:33:42;;;;;;;13.43;6.17;;;3.80;99.90;;;;;;5037015;28;20263;-62
2022/01/16 12:36:11;;;;;;;10.63;5.23;;;3.90;99.90;;;;;;5037189;28;20615;-67
2022/01/16 12:39:11;;;;;;;8.53;4.90;;;3.80;99.90;;;;;;5039288;28;20201;-64
2022/01/16 12:41:45;;;;;;;8.17;5.10;;;3.90;99.90;;;;;;5032614;28;20217;-65
2022/01/16 12:44:13;;;;;;;9.97;5.60;;;3.80;99.90;;;;;;5035848;28;20187;-63
2022/01/16 12:46:44;;;;;;;10.83;5.87;;;3.80;99.90;;;;;;5032005;28;20179;-65
2022/01/16 12:49:16;;;;;;;10.07;5.57;;;3.90;99.90;;;;;;5037084;28;20549;-63
2022/01/16 12:51:44;;;;;;;9.17;5.67;;;3.90;99.90;;;;;;5037357;28;20172;-65
2022/01/16 12:54:22;;;;;;;13.20;6.60;;;3.80;99.90;;;;;;5038831;28;20191;-63
2022/01/16 12:56:50;;;;;;;10.67;6.30;;;3.80;99.90;;;;;;5036062;28;20237;-62
2022/01/16 12:59:27;;;;;;;11.67;6.40;;;3.70;99.90;;;;;;5045260;28;20183;-63
2022/01/16 13:01:58;;;;;;;11.77;6.80;;;3.70;99.90;;;;;;5039970;28;20213;-63
2022/01/16 13:04:43;;;;;;;10.93;6.93;;;3.80;99.90;;;;;;5041716;28;20176;-63
2022/01/16 13:07:12;;;;;;;9.70;6.07;;;3.70;99.90;;;;;;5047488;28;20518;-63
2022/01/16 13:09:39;;;;;;;9.00;5.10;;;3.60;99.90;;;;;;5047340;28;20173;-68
2022/01/16 13:12:07;;;;;;;9.73;6.73;;;3.60;99.90;;;;;;5045959;28;20302;-64
2022/01/16 13:14:35;;;;;;;11.57;6.90;;;3.60;99.90;;;;;;5038004;28;20262;-62
2022/01/16 13:17:05;;;;;;;12.23;7.53;;;3.60;99.90;;;;;;5039427;28;20208;-63
2022/01/16 13:19:52;;;;;;;10.00;6.13;;;3.60;99.90;;;;;;5043376;28;20196;-63
2022/01/16 13:22:23;;;;;;;12.80;7.07;;;3.60;99.90;;;;;;5043758;28;20196;-62
2022/01/16 13:25:00;;;;;;;10.10;5.33;;;3.60;99.90;;;;;;5041612;28;20240;-63
2022/01/16 13:27:40;;;;;;;11.80;7.00;;;3.50;99.90;;;;;;5038873;28;20274;-62